»·PEaware :: RBD343 KSAN-KTUS

RBD343 :: KSAN-KTUS

FLIGHT INFORMATION

Flight Status: Arrived
Operator: Unknown
More flights by this operator :: More flights under this callsign
Pilot: James W. (12414)
Aircraft: BOEING 737-800
(B738)
More flights by this aircraft type
Origin: KSAN San Diego Intl-Lindbergh
United States
Destination: KTUS Tucson Intl
United States
More flights between these airports :: More routes between these airports
Route: +ZZOOO2 IPL J18 GBN DINGO5
File this flight plan on PilotEdge
Remarks:
Altitude:
(Current/Filed)
31,000ft
Speed:
(Current/Filed)
450kts
Departed: 14-Oct-20 03:58 PM
Arrived: 14-Oct-20 04:58 PM
Distance/Time
Traveled:
318nm/1:00
Distance/Time
To Go:
Arrived

Flight Plot

Page will automatically refresh every two minutes.

Flight plan parsing failed; only flown route is shown


Map Options




Map Legend


Flown Route
Filed Route
Departure Airport
Arrival Airport
Navaid (VOR, NDB)
Fix

Horizontal Profiles

Position Reports

Time Latitude Longitude Heading Altitude Ground
Speed
14-Oct-20 15:29 32.734159 -117.200775 209 27ft 0kts
14-Oct-20 15:30 32.734159 -117.200775 209 27ft 0kts
14-Oct-20 15:31 32.734159 -117.200775 209 27ft 0kts
14-Oct-20 15:32 32.734159 -117.200775 209 27ft 0kts
14-Oct-20 15:33 32.734159 -117.200775 209 27ft 0kts
14-Oct-20 15:34 32.734159 -117.200775 209 27ft 0kts
14-Oct-20 15:35 32.734159 -117.200775 209 27ft 0kts
14-Oct-20 15:36 32.734159 -117.200775 209 27ft 0kts
14-Oct-20 15:37 32.734159 -117.200775 209 27ft 0kts
14-Oct-20 15:38 32.734159 -117.200775 209 27ft 0kts
14-Oct-20 15:39 32.734159 -117.200775 209 27ft 0kts
14-Oct-20 15:40 32.734159 -117.200775 209 27ft 0kts
14-Oct-20 15:41 32.734159 -117.200775 209 27ft 0kts
14-Oct-20 15:42 32.734159 -117.200775 209 27ft 0kts
14-Oct-20 15:43 32.734159 -117.200775 209 27ft 0kts
14-Oct-20 15:44 32.734159 -117.200775 209 27ft 0kts
14-Oct-20 15:45 32.734159 -117.200775 209 27ft 0kts
14-Oct-20 15:46 32.734159 -117.200775 209 27ft 0kts
14-Oct-20 15:47 32.734159 -117.200774 209 27ft 0kts
14-Oct-20 15:48 32.734560 -117.200726 120 27ft 2kts
14-Oct-20 15:49 32.734593 -117.200787 125 27ft 0kts
14-Oct-20 15:50 32.734593 -117.200787 125 27ft 0kts
14-Oct-20 15:51 32.734593 -117.200787 125 27ft 0kts
14-Oct-20 15:52 32.734579 -117.200627 80 27ft 6kts
14-Oct-20 15:53 32.733260 -117.193139 104 27ft 37kts
14-Oct-20 15:54 32.730822 -117.182594 107 27ft 30kts
14-Oct-20 15:55 32.729493 -117.176696 72 27ft 0kts
14-Oct-20 15:56 32.730449 -117.176868 286 27ft 13kts
14-Oct-20 15:57 32.739328 -117.213539 283 964ft 184kts
14-Oct-20 15:58 32.727518 -117.279459 228 3098ft 239kts
14-Oct-20 15:59 32.671110 -117.299982 143 5218ft 249kts
14-Oct-20 16:00 32.620052 -117.236576 130 7375ft 283kts
14-Oct-20 16:01 32.606505 -117.143647 93 9488ft 296kts
14-Oct-20 16:02 32.604380 -117.041926 92 11608ft 332kts
14-Oct-20 16:03 32.602761 -116.924315 85 13711ft 376kts
14-Oct-20 16:04 32.625292 -116.797805 76 15830ft 404kts
14-Oct-20 16:05 32.641380 -116.662224 83 17939ft 423kts
14-Oct-20 16:06 32.655008 -116.521179 83 20049ft 435kts
14-Oct-20 16:07 32.669055 -116.376350 83 22161ft 443kts
14-Oct-20 16:08 32.681250 -116.246213 83 24035ft 446kts
14-Oct-20 16:09 32.695416 -116.099473 83 26149ft 445kts
14-Oct-20 16:10 32.708841 -115.953962 84 28254ft 441kts
14-Oct-20 16:11 32.722289 -115.805696 84 28966ft 470kts
14-Oct-20 16:12 32.736943 -115.645097 84 29385ft 498kts
14-Oct-20 16:13 32.749522 -115.480058 88 30940ft 496kts
14-Oct-20 16:14 32.753575 -115.316709 89 30943ft 491kts
14-Oct-20 16:15 32.757455 -115.153581 89 30955ft 492kts
14-Oct-20 16:16 32.761106 -114.990498 89 30954ft 495kts
14-Oct-20 16:17 32.764187 -114.825635 89 30949ft 497kts
14-Oct-20 16:18 32.767346 -114.660440 89 30946ft 497kts
14-Oct-20 16:19 32.769859 -114.496242 89 30951ft 497kts
14-Oct-20 16:20 32.772017 -114.331505 90 30953ft 496kts
14-Oct-20 16:21 32.774113 -114.170067 90 30954ft 496kts
14-Oct-20 16:22 32.776654 -114.005573 86 30922ft 498kts
14-Oct-20 16:23 32.795625 -113.842053 81 29433ft 497kts
14-Oct-20 16:24 32.818361 -113.678354 80 28133ft 502kts
14-Oct-20 16:25 32.841352 -113.513854 80 26825ft 505kts
14-Oct-20 16:26 32.864571 -113.348370 80 25513ft 506kts
14-Oct-20 16:27 32.887488 -113.184328 80 24200ft 496kts
14-Oct-20 16:28 32.909894 -113.022334 80 23971ft 496kts
14-Oct-20 16:29 32.932074 -112.860363 80 23963ft 481kts
14-Oct-20 16:30 32.945222 -112.705728 98 23978ft 473kts
14-Oct-20 16:31 32.905986 -112.556555 112 23972ft 469kts
14-Oct-20 16:32 32.854507 -112.412866 114 23267ft 464kts
14-Oct-20 16:34 32.804279 -112.279989 115 21571ft 425kts
14-Oct-20 16:35 32.756538 -112.155936 115 19861ft 398kts
14-Oct-20 16:36 32.711201 -112.039376 115 18153ft 379kts
14-Oct-20 16:37 32.667472 -111.927580 115 16444ft 365kts
14-Oct-20 16:38 32.625230 -111.819796 115 14738ft 354kts
14-Oct-20 16:39 32.583956 -111.714801 115 13029ft 346kts
14-Oct-20 16:40 32.540853 -111.615590 126 11936ft 320kts
14-Oct-20 16:41 32.486746 -111.530167 127 11112ft 327kts
14-Oct-20 16:42 32.434462 -111.447445 126 9235ft 302kts
14-Oct-20 16:43 32.386462 -111.371585 126 7407ft 268kts
14-Oct-20 16:44 32.342286 -111.305378 129 5943ft 235kts
14-Oct-20 16:45 32.302592 -111.249967 129 5948ft 216kts
14-Oct-20 16:46 32.263556 -111.195412 129 5963ft 216kts
14-Oct-20 16:47 32.224475 -111.140670 129 5976ft 217kts
14-Oct-20 16:48 32.184760 -111.086542 136 5989ft 217kts
14-Oct-20 16:49 32.140456 -111.037085 136 5897ft 222kts
14-Oct-20 16:50 32.095585 -110.989181 144 4349ft 212kts
14-Oct-20 16:51 32.047873 -110.949800 145 3989ft 208kts
14-Oct-20 16:52 32.000394 -110.909881 145 4006ft 207kts
14-Oct-20 16:52 31.974565 -110.867113 79 3990ft 176kts
14-Oct-20 16:54 32.019087 -110.843095 347 4242ft 160kts
14-Oct-20 16:54 32.051291 -110.863592 316 3492ft 152kts
14-Oct-20 16:56 32.087118 -110.905498 315 3002ft 154kts
14-Oct-20 16:56 32.112395 -110.934959 313 2654ft 143kts
14-Oct-20 16:57 32.123768 -110.946275 82 2653ft 15kts

Navigation Log

Ident Type
Flight plan parsing failed, navigation log unavailable